Schley, Wisconsin
Current Conditions -  °F | °C
As of 2:35 AM on Sunday 26 Oct 2014 (Local Time) from KRRL Reporting Station
Clear Clear  
Wind Chill: 33°   Ceiling: Unl
Heat Index: 38°   Visibility: 10mi
Dew Point: 27°   Wind: 6mph
Humidity: 66%   Direction: 250°WSW
Pressure: 29.97"   Gusts: NA
Location:  45.2167°N, 89.8732°W
Report Text: KRRL 260735Z AUTO 25005KT 10SM CLR 03/M03 A2997 RMK AO2 T00321027
Loading
Personal Weather Stations






























Interactive Weather Map
Tropical Storm Tracking
New forecast layout! Learn more

10-Day Weather Forecast

Advertisements
Track Severe Weather on mobile